Time;durP1;ratioP1;P1;durP2;ratioP2;P2;SDS_P1;SDS_P2;PMS_P1;PMS_P2;Temp;Humidity;BMP_temperature;BMP_pressure;BME280_temperature;BME280_humidity;BME280_pressure;Samples;Min_cycle;Max_cycle;Signal;HPM_P1;HPM_P2
2021/09/14 00:00:33;;;;;;;17.02;11.65;;;;;;;19.82;100.00;96371.53;5043137;28;20075;-59
2021/09/14 00:03:02;;;;;;;20.77;11.27;;;;;;;19.90;100.00;96367.84;5029986;28;20077;-61
2021/09/14 00:05:31;;;;;;;12.63;9.68;;;;;;;19.94;100.00;96368.25;5032401;28;20075;-62
2021/09/14 00:08:00;;;;;;;11.57;8.60;;;;;;;19.92;100.00;96368.44;5036354;28;20060;-61
2021/09/14 00:10:28;;;;;;;12.18;9.82;;;;;;;19.88;100.00;96365.34;5016600;28;20081;-60
2021/09/14 00:12:58;;;;;;;12.80;8.63;;;;;;;19.99;100.00;96374.63;5025837;28;20085;-61
2021/09/14 00:15:27;;;;;;;9.07;6.70;;;;;;;19.96;100.00;96368.84;5023200;28;20068;-62
2021/09/14 00:17:55;;;;;;;8.00;7.03;;;;;;;19.68;100.00;96370.72;5024511;28;20080;-62
2021/09/14 00:20:23;;;;;;;7.80;7.00;;;;;;;19.95;100.00;96377.91;5022690;28;20069;-59
2021/09/14 00:22:52;;;;;;;8.88;7.70;;;;;;;19.87;100.00;96373.59;5026931;28;20540;-62
2021/09/14 00:25:20;;;;;;;9.57;6.65;;;;;;;19.90;100.00;96371.34;5044803;28;20524;-60
2021/09/14 00:27:49;;;;;;;10.65;9.52;;;;;;;19.25;100.00;96372.84;5049750;28;20098;-61
2021/09/14 00:30:19;;;;;;;9.80;8.80;;;;;;;19.52;100.00;96376.41;5045294;28;20068;-61
2021/09/14 00:32:47;;;;;;;7.38;6.53;;;;;;;19.28;100.00;96377.78;5030339;28;20076;-61
2021/09/14 00:35:16;;;;;;;7.45;5.90;;;;;;;19.29;100.00;96373.25;5022990;28;20069;-60
2021/09/14 00:37:44;;;;;;;7.50;6.28;;;;;;;19.64;100.00;96368.63;5022801;28;20073;-61
2021/09/14 00:40:13;;;;;;;7.63;6.75;;;;;;;19.43;100.00;96372.25;5028823;28;20069;-62
2021/09/14 00:42:42;;;;;;;7.95;7.15;;;;;;;19.17;100.00;96365.81;5023924;28;20065;-61
2021/09/14 00:45:11;;;;;;;6.93;6.07;;;;;;;19.65;100.00;96364.94;5024960;28;20469;-61
2021/09/14 00:47:40;;;;;;;6.65;5.47;;;;;;;19.42;100.00;96365.28;5020909;28;20500;-61
2021/09/14 00:50:10;;;;;;;6.80;5.82;;;;;;;19.64;100.00;96363.28;5026971;28;20071;-60
2021/09/14 00:52:38;;;;;;;7.22;6.05;;;;;;;19.47;100.00;96362.81;5025619;28;20089;-58
2021/09/14 00:55:07;;;;;;;8.43;6.43;;;;;;;19.28;100.00;96360.91;5030342;28;20076;-61
2021/09/14 00:57:36;;;;;;;7.43;6.72;;;;;;;18.79;100.00;96359.28;5026948;28;20566;-58
2021/09/14 01:00:05;;;;;;;7.28;6.57;;;;;;;18.91;100.00;96349.69;5024526;28;20080;-60
2021/09/14 01:02:33;;;;;;;6.82;6.13;;;;;;;19.31;100.00;96355.16;5032540;28;20060;-59
2021/09/14 01:05:05;;;;;;;7.47;6.72;;;;;;;19.32;100.00;96351.47;5046978;28;20067;-61
2021/09/14 01:07:33;;;;;;;7.53;6.82;;;;;;;19.29;100.00;96354.53;5045294;28;20069;-60
2021/09/14 01:10:02;;;;;;;7.97;7.18;;;;;;;19.05;100.00;96351.38;5040741;28;20076;-61
2021/09/14 01:12:31;;;;;;;9.27;7.22;;;;;;;19.14;100.00;96350.19;5051790;28;20069;-61
2021/09/14 01:14:59;;;;;;;7.68;6.88;;;;;;;19.14;100.00;96344.84;5033874;28;20065;-62
2021/09/14 01:17:28;;;;;;;9.57;7.80;;;;;;;19.31;100.00;96347.97;5024938;28;20068;-60
2021/09/14 01:19:56;;;;;;;9.43;7.10;;;;;;;19.40;100.00;96344.06;5020086;28;20065;-60
2021/09/14 01:22:30;;;;;;;7.53;6.72;;;;;;;18.72;100.00;96340.56;5026140;28;20077;-61
2021/09/14 01:24:58;;;;;;;8.80;7.03;;;;;;;18.73;100.00;96331.53;5048449;28;20088;-60
2021/09/14 01:27:27;;;;;;;10.63;7.65;;;;;;;18.59;100.00;96335.94;5026205;28;20080;-60
2021/09/14 01:30:14;;;;;;;9.75;7.20;;;;;;;19.24;100.00;96333.75;5036189;28;20069;-56
2021/09/14 01:32:43;;;;;;;9.73;7.32;;;;;;;19.21;100.00;96340.34;5043633;28;20064;-61
2021/09/14 01:35:14;;;;;;;11.07;7.82;;;;;;;19.34;100.00;96334.19;5043914;28;20073;-62
2021/09/14 01:37:44;;;;;;;10.15;8.05;;;;;;;19.21;100.00;96334.16;5026155;28;20084;-61
2021/09/14 01:40:13;;;;;;;10.05;7.70;;;;;;;19.26;100.00;96334.38;5047977;28;20085;-60
2021/09/14 01:42:42;;;;;;;9.35;7.63;;;;;;;19.32;100.00;96336.25;5025168;28;20080;-61
2021/09/14 01:45:12;;;;;;;9.02;7.97;;;;;;;19.12;100.00;96336.19;5019650;28;20069;-60
2021/09/14 01:47:42;;;;;;;10.20;9.07;;;;;;;19.21;100.00;96336.84;5020663;28;20069;-59
2021/09/14 01:50:12;;;;;;;9.38;7.82;;;;;;;19.28;100.00;96332.31;5027120;28;20072;-62
2021/09/14 01:52:40;;;;;;;9.48;7.03;;;;;;;18.92;100.00;96333.44;5022627;28;20073;-61
2021/09/14 01:55:13;;;;;;;9.70;6.90;;;;;;;18.83;100.00;96341.84;5026949;28;20073;-60
2021/09/14 01:57:42;;;;;;;8.75;6.72;;;;;;;18.40;100.00;96342.81;5018771;28;20061;-59
2021/09/14 02:00:15;;;;;;;9.43;7.72;;;;;;;18.35;100.00;96336.44;5016824;28;20061;-61
2021/09/14 02:03:06;;;;;;;9.65;8.52;;;;;;;18.21;100.00;96338.19;5023427;28;20087;-61
2021/09/14 02:05:49;;;;;;;9.13;8.18;;;;;;;18.31;100.00;96341.34;5024384;28;20068;-60
2021/09/14 02:08:41;;;;;;;10.73;7.47;;;;;;;18.47;100.00;96341.00;5024650;28;20465;-62
2021/09/14 02:42:02;;;;;;;13.75;12.35;;;;;;;18.19;100.00;96361.56;5031931;28;20471;-61
2021/09/14 03:01:05;;;;;;;12.20;11.00;;;;;;;18.27;100.00;96350.75;5037835;28;21601;-60
2021/09/14 03:03:34;;;;;;;11.10;10.00;;;;;;;18.44;100.00;96346.78;5046750;28;20065;-58
2021/09/14 03:06:03;;;;;;;11.27;10.18;;;;;;;18.45;100.00;96339.56;5043168;28;20057;-60
2021/09/14 03:08:32;;;;;;;10.70;9.70;;;;;;;18.45;100.00;96340.41;5032933;28;20068;-59
2021/09/14 03:11:05;;;;;;;10.90;9.60;;;;;;;18.66;100.00;96342.16;5028947;28;20069;-62
2021/09/14 03:13:34;;;;;;;9.57;8.30;;;;;;;18.81;100.00;96333.19;5047566;28;20061;-58
2021/09/14 03:16:03;;;;;;;10.38;9.18;;;;;;;18.58;100.00;96334.31;5046679;28;20064;-61
2021/09/14 03:18:33;;;;;;;10.07;9.07;;;;;;;18.41;100.00;96335.63;5026461;28;20061;-61
2021/09/14 03:21:02;;;;;;;10.68;8.80;;;;;;;18.73;100.00;96336.88;5024731;28;20053;-61
2021/09/14 03:23:30;;;;;;;12.65;9.38;;;;;;;18.24;100.00;96333.28;5022911;28;20072;-61
2021/09/14 03:25:59;;;;;;;13.75;10.43;;;;;;;17.94;100.00;96335.34;5023758;28;20153;-59
2021/09/14 03:28:28;;;;;;;12.50;11.30;;;;;;;18.07;100.00;96328.47;5024779;28;20099;-60
2021/09/14 03:30:57;;;;;;;11.57;9.93;;;;;;;18.47;100.00;96327.66;5044600;28;20294;-61
2021/09/14 03:33:25;;;;;;;12.35;9.13;;;;;;;18.49;100.00;96330.16;5025735;28;20061;-57
2021/09/14 03:35:55;;;;;;;9.20;7.97;;;;;;;18.35;100.00;96317.75;5024032;28;20632;-58
2021/09/14 03:38:24;;;;;;;13.05;9.23;;;;;;;18.48;100.00;96312.50;5023989;28;20080;-62
2021/09/14 03:40:53;;;;;;;11.23;9.07;;;;;;;18.57;100.00;96315.81;5022570;28;20053;-61
2021/09/14 03:43:21;;;;;;;9.25;8.25;;;;;;;18.55;100.00;96309.81;5023819;28;20064;-61
2021/09/14 03:45:50;;;;;;;11.07;9.82;;;;;;;18.50;100.00;96315.75;5046119;28;20458;-60
2021/09/14 03:48:19;;;;;;;7.55;6.55;;;;;;;18.42;100.00;96313.28;5046156;28;20566;-60
2021/09/14 03:50:48;;;;;;;11.52;8.75;;;;;;;18.28;100.00;96323.06;5045750;28;20095;-61
2021/09/14 03:53:18;;;;;;;11.80;10.70;;;;;;;17.57;100.00;96315.09;5047918;28;20064;-60
2021/09/14 03:55:46;;;;;;;10.93;9.82;;;;;;;17.46;100.00;96321.78;5044987;28;20114;-60
2021/09/14 03:58:15;;;;;;;11.00;9.85;;;;;;;17.85;100.00;96319.66;5044662;28;20073;-60
2021/09/14 04:00:50;;;;;;;11.45;10.32;;;;;;;17.69;100.00;96326.91;5024669;28;20060;-59
2021/09/14 04:03:24;;;;;;;13.77;10.95;;;;;;;17.74;100.00;96319.13;5030589;28;20068;-61
2021/09/14 04:08:52;;;;;;;12.20;10.85;;;;;;;17.44;100.00;96314.97;5021546;28;20073;-60
2021/09/14 04:11:22;;;;;;;11.57;10.38;;;;;;;17.41;100.00;96315.34;5032707;28;20057;-59
2021/09/14 04:13:51;;;;;;;11.27;10.18;;;;;;;17.79;100.00;96318.59;5044701;28;20127;-59
2021/09/14 04:16:21;;;;;;;12.00;10.88;;;;;;;17.44;100.00;96320.31;5048927;28;20520;-60
2021/09/14 04:18:49;;;;;;;12.55;11.27;;;;;;;17.58;100.00;96311.41;5027105;28;20694;-59
2021/09/14 04:21:18;;;;;;;11.20;10.00;;;;;;;17.58;100.00;96311.41;5022727;28;20077;-61
2021/09/14 04:23:48;;;;;;;11.32;9.82;;;;;;;17.47;100.00;96312.75;5036376;28;20079;-61
2021/09/14 04:26:16;;;;;;;11.23;9.82;;;;;;;17.61;100.00;96307.53;5038794;28;20071;-60
2021/09/14 04:28:45;;;;;;;11.20;10.10;;;;;;;17.48;100.00;96317.09;5029902;28;20076;-60
2021/09/14 04:31:13;;;;;;;9.75;8.75;;;;;;;17.45;100.00;96316.66;5045546;28;20516;-58
2021/09/14 04:33:42;;;;;;;12.48;9.77;;;;;;;17.74;100.00;96319.13;5025101;28;20053;-60
2021/09/14 04:36:10;;;;;;;12.38;9.75;;;;;;;17.78;100.00;96316.94;5014958;28;20081;-61
2021/09/14 04:38:41;;;;;;;10.02;8.50;;;;;;;17.91;100.00;96322.38;5051970;28;20448;-57
2021/09/14 04:41:11;;;;;;;9.00;8.20;;;;;;;17.89;100.00;96319.06;5043497;28;20068;-60
2021/09/14 04:43:40;;;;;;;9.27;8.38;;;;;;;17.56;100.00;96321.44;5044946;28;20083;-60
2021/09/14 04:46:08;;;;;;;10.27;8.90;;;;;;;17.55;100.00;96328.63;5044536;28;20072;-60
2021/09/14 04:48:37;;;;;;;10.13;8.73;;;;;;;17.46;100.00;96318.28;5026324;28;20457;-60
2021/09/14 04:51:24;;;;;;;9.85;8.85;;;;;;;17.64;100.00;96323.16;5023415;28;20079;-59
2021/09/14 04:53:52;;;;;;;10.63;9.40;;;;;;;17.04;100.00;96325.25;5037760;28;20068;-58
2021/09/14 04:56:22;;;;;;;12.20;10.88;;;;;;;17.12;100.00;96326.97;5045044;28;20071;-58
2021/09/14 04:58:51;;;;;;;13.60;11.75;;;;;;;17.11;100.00;96325.31;5043116;28;20076;-59
2021/09/14 05:01:20;;;;;;;13.50;11.07;;;;;;;17.46;100.00;96320.94;5025528;28;20088;-59
2021/09/14 05:03:49;;;;;;;16.30;10.38;;;;;;;18.01;100.00;96330.88;5021527;28;20060;-60
2021/09/14 05:06:19;;;;;;;14.63;9.67;;;;;;;18.17;100.00;96328.91;5025539;28;20069;-60
2021/09/14 05:08:48;;;;;;;9.90;8.10;;;;;;;17.93;100.00;96338.22;5026290;28;20097;-59
2021/09/14 05:11:17;;;;;;;8.25;7.45;;;;;;;17.84;100.00;96329.50;5034449;28;20076;-61
2021/09/14 05:13:47;;;;;;;12.27;8.27;;;;;;;18.00;100.00;96334.56;5045921;28;20544;-60
2021/09/14 05:16:15;;;;;;;9.93;8.93;;;;;;;18.01;100.00;96330.88;5027746;28;20081;-60
2021/09/14 05:18:47;;;;;;;9.40;8.50;;;;;;;17.78;100.00;96324.94;5030178;28;20076;-60
2021/09/14 05:21:16;;;;;;;9.05;8.15;;;;;;;17.62;100.00;96334.03;5027776;28;20079;-61
2021/09/14 05:23:44;;;;;;;9.75;8.10;;;;;;;17.63;100.00;96326.84;5028264;28;20069;-61
2021/09/14 05:26:13;;;;;;;9.10;8.20;;;;;;;17.90;100.00;96331.41;5025182;28;20593;-60
2021/09/14 05:28:43;;;;;;;8.98;7.70;;;;;;;18.30;100.00;96331.66;5022441;28;20536;-60
2021/09/14 05:31:13;;;;;;;7.93;7.13;;;;;;;18.63;100.00;96331.03;5021633;28;20081;-60
2021/09/14 05:33:42;;;;;;;9.27;8.15;;;;;;;18.76;100.00;96322.31;5025535;28;20069;-60
2021/09/14 05:36:10;;;;;;;9.00;8.10;;;;;;;19.03;100.00;96325.88;5021305;28;20095;-61
2021/09/14 05:38:39;;;;;;;10.50;9.15;;;;;;;19.32;100.00;96330.91;5034841;28;20072;-57
2021/09/14 05:41:07;;;;;;;9.82;8.82;;;;;;;19.39;100.00;96325.56;5037378;28;20080;-60
2021/09/14 05:43:36;;;;;;;10.63;8.20;;;;;;;19.07;100.00;96332.50;5043689;28;20076;-61
2021/09/14 05:46:04;;;;;;;11.98;8.15;;;;;;;19.70;100.00;96329.53;5059576;28;20123;-57
2021/09/14 05:48:34;;;;;;;8.90;8.00;;;;;;;19.71;100.00;96331.19;5027696;28;20536;-57
2021/09/14 05:51:03;;;;;;;9.13;8.15;;;;;;;19.86;100.00;96331.81;5033226;28;20437;-61
2021/09/14 05:53:31;;;;;;;8.38;7.57;;;;;;;20.07;100.00;96328.91;5026745;28;20457;-61
2021/09/14 05:55:59;;;;;;;8.95;7.85;;;;;;;20.20;100.00;96333.44;5017408;28;20734;-60
2021/09/14 05:58:30;;;;;;;9.40;8.38;;;;;;;20.41;100.00;96328.88;5025402;28;20083;-58
2021/09/14 06:00:59;;;;;;;11.60;8.68;;;;;;;20.57;100.00;96328.44;5028650;28;20492;-59
2021/09/14 06:03:28;;;;;;;16.92;12.93;;;;;;;20.15;100.00;96331.38;5041849;28;20072;-62
2021/09/14 06:05:58;;;;;;;17.30;14.15;;;;;;;19.37;100.00;96330.28;5038727;28;20072;-61
2021/09/14 06:08:27;;;;;;;19.20;13.68;;;;;;;19.46;100.00;96331.75;5033964;28;20069;-62
2021/09/14 06:10:55;;;;;;;17.88;15.13;;;;;;;19.81;100.00;96334.28;5020911;28;20061;-62
2021/09/14 06:13:24;;;;;;;19.15;14.35;;;;;;;19.55;100.00;96333.19;5026660;28;20142;-59
2021/09/14 06:15:52;;;;;;;19.25;14.18;;;;;;;20.72;100.00;96333.56;5028728;28;20151;-61
2021/09/14 06:18:20;;;;;;;17.00;14.18;;;;;;;;;;5022940;28;20064;-60
2021/09/14 06:20:49;;;;;;;17.48;13.50;;;;;;;19.86;100.00;96337.16;5035273;28;20065;-61
2021/09/14 06:23:19;;;;;;;13.48;12.10;;;;;;;20.79;100.00;96334.34;5045126;28;20060;-61
2021/09/14 06:25:47;;;;;;;15.88;13.70;;;;;;;20.78;100.00;96335.38;5043467;28;20057;-62
2021/09/14 06:28:15;;;;;;;20.58;12.45;;;;;;;21.32;100.00;96334.91;5032668;28;20076;-61
2021/09/14 06:30:44;;;;;;;15.38;12.63;;;;;;;21.41;100.00;96338.19;5018458;28;20069;-60
2021/09/14 06:33:12;;;;;;;16.88;12.98;;;;;;;22.30;100.00;96340.84;5027653;28;20076;-57
2021/09/14 06:35:41;;;;;;;14.80;12.35;;;;;;;22.37;100.00;96334.38;5022975;28;20120;-62
2021/09/14 06:38:09;;;;;;;14.88;12.13;;;;;;;22.49;100.00;96332.56;5021386;28;20264;-60
2021/09/14 06:40:39;;;;;;;16.90;12.52;;;;;;;22.66;100.00;96350.81;5022323;28;20085;-62
2021/09/14 06:43:07;;;;;;;13.93;12.35;;;;;;;23.12;100.00;96350.28;5045907;28;20485;-61
2021/09/14 06:45:36;;;;;;;16.05;12.07;;;;;;;23.77;100.00;96346.09;5045617;28;20479;-62
2021/09/14 06:48:05;;;;;;;14.85;11.70;;;;;;;22.88;100.00;96353.88;5030245;28;20069;-61
2021/09/14 06:50:33;;;;;;;13.10;10.73;;;;;;;23.70;100.00;96348.91;5028789;28;20516;-62
2021/09/14 06:53:01;;;;;;;12.75;10.98;;;;;;;23.88;100.00;96359.63;5032274;28;20453;-60
2021/09/14 06:55:30;;;;;;;12.35;11.00;;;;;;;24.50;100.00;96356.53;5038992;28;20551;-61
2021/09/14 06:58:00;;;;;;;13.25;10.80;;;;;;;24.49;100.00;96362.16;5027760;28;20147;-62
2021/09/14 07:00:28;;;;;;;11.10;9.77;;;;;;;24.67;100.00;96359.31;5020858;28;20460;-59
2021/09/14 07:02:56;;;;;;;13.77;9.60;;;;;;;24.46;100.00;96362.63;5024347;28;20068;-62
2021/09/14 07:05:25;;;;;;;14.45;9.40;;;;;;;24.23;100.00;96356.16;5026642;28;20062;-60
2021/09/14 07:07:54;;;;;;;10.52;9.43;;;;;;;24.00;100.00;96353.41;5030078;28;20579;-62
2021/09/14 07:10:22;;;;;;;10.93;8.88;;;;;;;24.74;100.00;96364.59;5045489;28;20076;-58
2021/09/14 07:12:51;;;;;;;9.95;8.75;;;;;;;23.86;100.00;96353.63;5041384;28;20505;-62
2021/09/14 07:15:20;;;;;;;11.32;9.05;;;;;;;23.09;100.00;96352.59;5029066;28;20132;-60
2021/09/14 07:17:49;;;;;;;10.10;8.55;;;;;;;23.99;100.00;96354.50;5023330;28;20073;-58
2021/09/14 07:20:17;;;;;;;10.45;9.35;;;;;;;23.06;100.00;96350.41;5020052;28;20071;-61
2021/09/14 07:22:46;;;;;;;10.80;9.30;;;;;;;24.16;100.00;96350.88;5056175;28;20057;-61
2021/09/14 07:25:14;;;;;;;10.48;9.35;;;;;;;23.30;100.00;96354.03;5027998;28;20084;-61
2021/09/14 07:27:43;;;;;;;10.73;9.30;;;;;;;23.28;100.00;96356.91;5021858;28;20072;-62
2021/09/14 07:30:12;;;;;;;10.65;9.55;;;;;;;23.58;100.00;96348.84;5038536;28;20076;-61
2021/09/14 07:32:42;;;;;;;11.38;9.70;;;;;;;23.27;100.00;96351.78;5036650;28;20076;-61
2021/09/14 07:35:11;;;;;;;10.75;9.65;;;;;;;23.77;100.00;96352.31;5036850;28;20065;-60
2021/09/14 07:37:40;;;;;;;13.90;9.00;;;;;;;24.47;100.00;96350.78;5022939;28;20103;-63
2021/09/14 07:40:09;;;;;;;11.25;9.55;;;;;;;24.17;100.00;96354.38;5025497;28;20072;-62
2021/09/14 07:42:37;;;;;;;10.73;9.47;;;;;;;24.27;100.00;96343.03;5022283;28;20073;-61
2021/09/14 07:45:07;;;;;;;10.02;8.75;;;;;;;23.97;100.00;96348.50;5020969;28;20065;-62
2021/09/14 07:47:35;;;;;;;10.88;9.20;;;;;;;24.26;100.00;96355.69;5019941;28;20451;-61
2021/09/14 07:50:06;;;;;;;10.88;9.77;;;;;;;24.79;100.00;96349.34;5020765;28;20426;-62
2021/09/14 07:52:35;;;;;;;12.18;9.30;;;;;;;24.15;100.00;96353.78;5021008;28;20540;-58
2021/09/14 07:55:04;;;;;;;10.88;9.18;;;;;;;24.88;100.00;96344.41;5024883;28;20085;-59
2021/09/14 07:57:32;;;;;;;10.13;8.95;;;;;;;24.18;100.00;96356.00;5020292;28;20450;-61
2021/09/14 08:00:01;;;;;;;9.80;8.80;;;;;;;24.62;100.00;96359.22;5031525;28;20069;-60
2021/09/14 08:02:29;;;;;;;10.57;8.52;;;;;;;25.47;100.00;96353.16;5033135;28;20080;-60
2021/09/14 08:04:58;;;;;;;10.30;8.90;;;;;;;24.95;100.00;96346.94;5020056;28;20069;-60
2021/09/14 08:07:29;;;;;;;10.35;9.05;;;;;;;24.88;100.00;96349.81;5023934;28;20081;-59
2021/09/14 08:09:57;;;;;;;10.30;8.75;;;;;;;24.86;100.00;96350.03;5040298;28;20456;-62
2021/09/14 08:12:26;;;;;;;10.27;9.13;;;;;;;25.09;100.00;96359.16;5041650;28;20071;-60
2021/09/14 08:14:54;;;;;;;10.13;9.00;;;;;;;25.70;100.00;96357.63;5029707;28;20069;-56
2021/09/14 08:17:23;;;;;;;9.70;8.70;;;;;;;26.63;100.00;96346.44;5025035;28;20080;-62
2021/09/14 08:19:51;;;;;;;11.57;9.13;;;;;;;26.60;98.80;96346.94;5028811;28;20071;-62
2021/09/14 08:22:21;;;;;;;10.00;8.95;;;;;;;26.00;100.00;96351.97;5048177;28;20080;-61
2021/09/14 08:24:51;;;;;;;9.95;8.73;;;;;;;25.82;100.00;96356.78;5022638;28;21386;-62
2021/09/14 08:27:20;;;;;;;10.20;8.05;;;;;;;26.68;100.00;96360.88;5040257;28;20076;-62
2021/09/14 08:29:48;;;;;;;9.05;8.10;;;;;;;27.37;92.84;96354.19;5039812;28;20061;-62
2021/09/14 08:32:16;;;;;;;9.52;7.63;;;;;;;26.80;95.59;96359.94;5037680;28;20076;-61
2021/09/14 08:34:45;;;;;;;9.82;7.85;;;;;;;25.91;100.00;96355.31;5024567;28;20080;-62
2021/09/14 08:37:13;;;;;;;12.25;8.05;;;;;;;25.92;100.00;96352.38;5033535;28;20084;-60
2021/09/14 08:39:42;;;;;;;8.65;7.68;;;;;;;26.19;100.00;96352.53;5022520;28;20464;-62
2021/09/14 08:42:12;;;;;;;8.55;7.65;;;;;;;26.40;99.20;96352.88;5024476;28;20065;-61
2021/09/14 08:44:42;;;;;;;9.43;8.15;;;;;;;26.46;100.00;96344.59;5017275;28;20064;-62
2021/09/14 08:47:15;;;;;;;8.95;8.15;;;;;;;27.91;85.42;96348.81;5022785;28;20073;-62
2021/09/14 08:49:44;;;;;;;;;;;;;;;27.52;93.29;96345.41;5027267;28;20092;-62
2021/09/14 08:52:15;;;;;;;9.80;8.80;;;;;;;26.55;100.00;96355.00;5027457;28;19964;-61
2021/09/14 08:54:44;;;;;;;10.55;9.27;;;;;;;27.53;93.97;96342.44;5025842;28;20079;-62
2021/09/14 08:57:14;;;;;;;9.13;8.23;;;;;;;26.21;100.00;96347.69;5038729;28;20056;-62
2021/09/14 08:59:46;;;;;;;9.18;8.15;;;;;;;27.40;93.20;96345.56;5039456;28;20065;-61
2021/09/14 09:02:16;;;;;;;10.32;8.98;;;;;;;27.97;89.88;96346.94;5041960;28;20073;-63
2021/09/14 09:04:55;;;;;;;10.02;8.65;;;;;;;28.27;86.88;96354.50;5025559;28;20073;-62
2021/09/14 09:07:33;;;;;;;11.75;9.82;;;;;;;27.88;85.31;96355.56;5023080;28;20089;-61
2021/09/14 09:10:11;;;;;;;9.45;8.52;;;;;;;28.50;82.13;96347.94;5029332;28;20057;-61
2021/09/14 09:12:42;;;;;;;14.57;9.10;;;;;;;27.18;90.66;96357.19;5021519;28;20073;-60
2021/09/14 09:15:11;;;;;;;8.95;8.05;;;;;;;27.43;84.99;96354.00;5025830;28;20072;-61
2021/09/14 09:17:40;;;;;;;10.85;9.25;;;;;;;26.55;94.90;96360.41;5030129;28;20064;-61
2021/09/14 09:20:09;;;;;;;11.48;9.13;;;;;;;26.46;100.00;96354.56;5040553;28;20551;-61
2021/09/14 09:22:38;;;;;;;10.15;9.15;;;;;;;27.81;83.08;96359.56;5032719;28;20081;-62
2021/09/14 09:25:07;;;;;;;10.63;9.52;;;;;;;27.38;86.52;96353.91;5025035;28;20084;-62
2021/09/14 09:27:36;;;;;;;11.50;9.40;;;;;;;27.52;88.39;96357.03;5016056;28;20521;-61
2021/09/14 09:30:08;;;;;;;11.38;10.27;;;;;;;27.68;85.22;96352.63;5027994;28;20100;-60
2021/09/14 09:32:44;;;;;;;14.73;9.60;;;;;;;27.03;92.99;96357.00;5024786;28;20068;-62
2021/09/14 09:35:13;;;;;;;11.25;9.23;;;;;;;28.08;83.77;96352.22;5025840;28;20533;-62
2021/09/14 09:37:42;;;;;;;9.50;8.10;;;;;;;28.29;82.34;96349.66;5021755;28;20073;-61
2021/09/14 09:40:24;;;;;;;13.07;9.07;;;;;;;26.91;96.71;96353.59;5049309;28;20087;-61
2021/09/14 09:42:52;;;;;;;10.50;8.80;;;;;;;28.86;78.85;96349.75;5022532;28;20447;-62
2021/09/14 09:45:22;;;;;;;10.48;8.68;;;;;;;28.62;82.91;96354.78;5035447;28;20087;-62
2021/09/14 09:47:54;;;;;;;10.45;9.35;;;;;;;28.20;81.93;96343.06;5035917;28;20505;-61
2021/09/14 09:50:23;;;;;;;9.77;8.63;;;;;;;28.47;78.08;96343.84;5032422;28;20707;-60
2021/09/14 09:52:52;;;;;;;10.05;9.02;;;;;;;29.02;74.16;96330.88;5027329;28;20692;-63
2021/09/14 09:55:20;;;;;;;10.65;8.30;;;;;;;29.30;76.53;96338.56;5050256;28;20081;-61
2021/09/14 09:57:50;;;;;;;10.35;8.60;;;;;;;28.92;75.10;96339.75;5043664;28;20162;-61
2021/09/14 10:00:18;;;;;;;9.80;8.80;;;;;;;29.86;69.78;96334.38;5047166;28;20064;-61
2021/09/14 10:02:52;;;;;;;12.55;9.32;;;;;;;28.91;78.24;96332.69;5034374;28;20085;-62
2021/09/14 10:05:23;;;;;;;10.77;8.30;;;;;;;30.17;68.26;96325.13;5028127;28;20077;-60
2021/09/14 10:07:51;;;;;;;10.35;8.13;;;;;;;29.64;70.60;96323.75;5026118;28;20061;-62
2021/09/14 10:10:20;;;;;;;10.95;8.05;;;;;;;29.19;75.66;96320.63;5023430;28;20045;-62
2021/09/14 10:12:49;;;;;;;9.80;8.57;;;;;;;28.84;73.76;96332.94;5024059;28;20080;-62
2021/09/14 10:15:17;;;;;;;10.07;7.97;;;;;;;29.65;75.43;96318.03;5024358;28;20041;-62
2021/09/14 10:17:49;;;;;;;9.45;8.45;;;;;;;30.01;70.34;96327.03;5022945;28;20462;-61
2021/09/14 10:20:21;;;;;;;9.15;7.57;;;;;;;29.21;74.66;96314.91;5024062;28;20509;-63
2021/09/14 10:23:06;;;;;;;9.52;8.23;;;;;;;29.28;68.83;96320.91;5025086;28;20064;-63
2021/09/14 10:25:34;;;;;;;10.20;7.85;;;;;;;28.84;72.82;96318.56;5024871;28;20477;-61
2021/09/14 10:28:10;;;;;;;8.27;7.15;;;;;;;30.07;64.44;96318.88;5023762;28;20075;-62
2021/09/14 10:30:39;;;;;;;10.57;8.15;;;;;;;29.62;71.13;96310.41;5022209;28;20584;-62
2021/09/14 10:33:20;;;;;;;9.13;8.20;;;;;;;28.51;80.78;96317.00;5025343;28;20072;-60
2021/09/14 10:35:49;;;;;;;9.20;8.30;;;;;;;28.71;78.13;96314.41;5021964;28;20083;-62
2021/09/14 10:38:18;;;;;;;8.73;7.05;;;;;;;30.50;66.86;96306.63;5020412;28;20540;-62
2021/09/14 10:40:47;;;;;;;10.00;8.27;;;;;;;28.74;73.36;96299.50;5017294;28;20068;-62
2021/09/14 10:43:29;;;;;;;9.63;8.15;;;;;;;29.46;72.58;96295.16;5047520;28;20080;-62
2021/09/14 10:45:59;;;;;;;8.68;7.78;;;;;;;29.61;70.38;96297.09;5021694;28;20647;-61
2021/09/14 10:48:30;;;;;;;8.38;7.45;;;;;;;29.26;72.38;96299.44;5019399;28;20064;-61
2021/09/14 10:51:09;;;;;;;8.65;7.28;;;;;;;30.24;65.81;96298.47;5028373;28;20065;-60
2021/09/14 10:53:39;;;;;;;9.05;7.90;;;;;;;29.18;70.88;96299.97;5037345;28;20068;-62
2021/09/14 10:56:10;;;;;;;8.02;7.20;;;;;;;29.03;77.24;96306.16;5036994;28;20513;-61
2021/09/14 10:58:43;;;;;;;8.18;7.38;;;;;;;29.27;72.58;96294.84;5025516;28;20088;-60
2021/09/14 11:01:12;;;;;;;8.60;7.70;;;;;;;29.36;73.47;96300.56;5021242;28;20064;-61
2021/09/14 11:03:42;;;;;;;9.00;7.60;;;;;;;30.24;69.27;96294.94;5026690;28;20064;-62
2021/09/14 11:06:10;;;;;;;8.70;7.78;;;;;;;29.61;70.03;96299.81;5020729;28;20438;-62
2021/09/14 11:08:40;;;;;;;9.73;7.25;;;;;;;28.97;79.28;96290.88;5018550;28;20065;-62
2021/09/14 11:11:08;;;;;;;9.38;8.48;;;;;;;28.63;77.03;96293.19;5028282;28;20064;-62
2021/09/14 11:13:39;;;;;;;8.88;7.45;;;;;;;30.23;67.84;96282.44;5044132;28;20075;-62
2021/09/14 11:16:07;;;;;;;8.25;7.20;;;;;;;29.65;66.33;96290.03;5040592;28;20089;-60
2021/09/14 11:18:36;;;;;;;7.28;6.57;;;;;;;29.95;66.93;96284.63;5024905;28;20076;-62
2021/09/14 11:21:08;;;;;;;8.93;7.18;;;;;;;29.05;71.66;96282.28;5038056;28;20064;-60
2021/09/14 11:23:39;;;;;;;8.32;7.18;;;;;;;29.67;68.94;96282.44;5034031;28;20065;-62
2021/09/14 11:26:09;;;;;;;10.15;8.45;;;;;;;30.36;63.50;96283.78;5028343;28;20072;-62
2021/09/14 11:28:37;;;;;;;7.70;6.40;;;;;;;30.26;60.10;96292.78;5043650;28;20102;-61
2021/09/14 11:31:08;;;;;;;7.18;5.85;;;;;;;29.65;53.13;96287.31;5047155;28;20473;-62
2021/09/14 11:33:38;;;;;;;6.90;5.88;;;;;;;30.28;52.44;96290.59;5025957;28;20073;-62
2021/09/14 11:36:08;;;;;;;6.50;5.90;;;;;;;29.64;56.41;96291.13;5038060;28;20072;-62
2021/09/14 11:38:38;;;;;;;11.10;6.35;;;;;;;29.61;61.63;96287.03;5041973;28;20057;-62
2021/09/14 11:41:10;;;;;;;8.57;5.88;;;;;;;30.75;55.82;96283.94;5033760;28;20480;-61
2021/09/14 11:43:41;;;;;;;7.40;6.63;;;;;;;30.10;59.71;96296.56;5023762;28;20091;-59
2021/09/14 11:46:15;;;;;;;7.43;6.63;;;;;;;30.38;58.23;96297.94;5021036;28;20088;-62
2021/09/14 11:48:54;;;;;;;6.68;6.00;;;;;;;30.96;54.68;96298.34;5024324;28;20095;-61
2021/09/14 11:51:24;;;;;;;7.07;6.23;;;;;;;29.97;59.16;96290.63;5021311;28;20644;-61
2021/09/14 11:53:53;;;;;;;6.90;6.00;;;;;;;30.58;57.06;96288.91;5021895;28;20464;-62
2021/09/14 11:56:26;;;;;;;7.05;5.50;;;;;;;31.67;51.08;96289.78;5017293;28;20469;-58
2021/09/14 11:58:54;;;;;;;7.13;5.03;;;;;;;31.20;46.71;96291.13;5029171;28;20069;-61
2021/09/14 12:01:31;;;;;;;6.72;4.78;;;;;;;31.01;45.81;96286.63;5021241;28;20065;-63
2021/09/14 12:04:00;;;;;;;6.57;5.13;;;;;;;30.27;48.55;96286.25;5043845;28;21304;-62
2021/09/14 12:06:31;;;;;;;5.85;5.03;;;;;;;30.24;49.96;96289.50;5044633;28;20516;-61
2021/09/14 12:09:02;;;;;;;6.03;5.43;;;;;;;30.78;47.63;96288.06;5031047;28;20065;-61
2021/09/14 12:11:33;;;;;;;8.18;5.43;;;;;;;31.03;47.42;96292.59;5019365;28;20061;-56
2021/09/14 12:14:05;;;;;;;5.22;4.72;;;;;;;30.78;50.30;96298.97;5021995;28;20056;-62
2021/09/14 12:16:37;;;;;;;5.70;5.10;;;;;;;31.24;48.02;96290.56;5032795;28;20075;-63
2021/09/14 12:19:06;;;;;;;5.35;4.85;;;;;;;30.29;48.61;96294.97;5027954;28;20093;-62
2021/09/14 12:21:35;;;;;;;6.10;4.88;;;;;;;30.67;48.25;96293.50;5042183;28;20083;-61
2021/09/14 12:24:04;;;;;;;5.40;4.90;;;;;;;30.38;48.09;96292.47;5043712;28;20065;-61